M/V Manukai — WRGD — position and weather

sailwx.info

Track history (hours):
 
Tides and Currents Weather Stations Pressure Air Temp Water Temp Dewpoint Dewpoint Depression Visibility Wind Speed Wind Dir Waves Ship Positions

M/V Manukai

Owner: Matson Navigation Company, Inc., Oakland, CA. More information available from US FCC via Universal Licensing System and Coast Guard Vessel Documentation Center.

Last reported at 2018-Jan-18 07:22 UTC. Time now 2018-Jan-19 23:36 UTC.
Position N 32°10' W 122°44'.

Type: Ship (hazmat cat A). MMSI: 369296000.

Date/timePositionNaut miles runAvg speedWind from/ knotsBaromVisibWave heightAir tempDewpointWater temp
2018-Jan-18 07:22N 32°10' W 122°44'1619.0
2018-Jan-18 06:32N 32°15' W 122°26'122.1
2018-Jan-18 06:30N 32°15' W 122°25'1019.5
2018-Jan-18 05:58N 32°18' W 122°14'917.6
2018-Jan-18 05:29N 32°21' W 122°04'1019.4
2018-Jan-18 04:58N 32°25' W 121°53'918.6
2018-Jan-18 04:29N 32°28' W 121°43'2619.0
2018-Jan-18 03:09N 32°36' W 121°14'418.7
2018-Jan-18 02:55N 32°38' W 121°09'818.7
2018-Jan-18 02:30N 32°40' W 121°01'1018.6
2018-Jan-18 01:58N 32°44' W 120°50'1318.7
2018-Jan-18 01:15N 32°48' W 120°35'518.1
2018-Jan-18 01:00N 32°49' W 120°30'  
Track history (hours):
 
Tides and Currents Weather Stations Pressure Air Temp Water Temp Dewpoint Dewpoint Depression Visibility Wind Speed Wind Dir Waves Ship Positions

M/V Manukai

Owner: Matson Navigation Company, Inc., Oakland, CA. More information available from US FCC via Universal Licensing System and Coast Guard Vessel Documentation Center.

Last reported at 2018-Jan-18 07:22 UTC. Time now 2018-Jan-19 23:36 UTC.
Position N 32°10' W 122°44'.

Type: Ship (hazmat cat A). MMSI: 369296000.

Date/timePositionNaut miles runAvg speedWind from/ knotsBaromVisibWave heightAir tempDewpointWater temp
2018-Jan-18 07:22N 32°10' W 122°44'1619.0
2018-Jan-18 06:32N 32°15' W 122°26'122.1
2018-Jan-18 06:30N 32°15' W 122°25'1019.5
2018-Jan-18 05:58N 32°18' W 122°14'917.6
2018-Jan-18 05:29N 32°21' W 122°04'1019.4
2018-Jan-18 04:58N 32°25' W 121°53'918.6
2018-Jan-18 04:29N 32°28' W 121°43'2619.0
2018-Jan-18 03:09N 32°36' W 121°14'418.7
2018-Jan-18 02:55N 32°38' W 121°09'818.7
2018-Jan-18 02:30N 32°40' W 121°01'1018.6
2018-Jan-18 01:58N 32°44' W 120°50'1318.7
2018-Jan-18 01:15N 32°48' W 120°35'518.1
2018-Jan-18 01:00N 32°49' W 120°30'  

Dump ship's entire track history